Time;durP1;ratioP1;P1;durP2;ratioP2;P2;SDS_P1;SDS_P2;PMS_P1;PMS_P2;Temp;Humidity;BMP_temperature;BMP_pressure;BME280_temperature;BME280_humidity;BME280_pressure;Samples;Min_cycle;Max_cycle;Signal;HPM_P1;HPM_P2
2023/07/13 00:00:09;;;;;;;;;;;;;;;28.08;64.77;99606.75;349444;28;1232;-78
2023/07/13 00:00:20;;;;;;;;;;;;;;;28.09;64.52;99608.44;350392;28;903;-78
2023/07/13 00:00:32;;;;;;;;;;;;;;;28.10;64.86;99610.09;350325;28;911;-78
2023/07/13 00:00:42;;;;;;;;;;;;;;;28.10;65.05;99612.78;348906;28;1492;-78
2023/07/13 00:00:52;;;;;;;;;;;;;;;28.09;65.03;99613.81;347613;28;1237;-78
2023/07/13 00:01:03;;;;;;;;;;;;;;;28.08;64.54;99609.44;349035;28;1374;-78
2023/07/13 00:01:13;;;;;;;;;;;;;;;28.08;65.09;99606.75;349084;28;1218;-79
2023/07/13 00:01:23;;;;;;;;;;;;;;;28.07;64.51;99613.16;347234;28;1010;-79
2023/07/13 00:01:34;;;;;;;;;;;;;;;28.08;64.68;99601.38;344949;28;781;-79
2023/07/13 00:01:46;;;;;;;;;;;;;;;28.08;65.06;99612.13;347293;28;1255;-78
2023/07/13 00:01:56;;;;;;;;;;;;;;;28.06;64.95;99613.31;345154;28;1335;-78
2023/07/13 00:02:06;;;;;;;;;;;;;;;28.05;64.55;99607.09;346311;28;1153;-78
2023/07/13 00:02:17;;;;;;;;;;;;;;;28.04;64.78;99608.09;346131;28;1238;-78
2023/07/13 00:02:27;;;;;;;;;;;;;;;28.01;64.67;99611.16;345134;28;1180;-79
2023/07/13 00:02:37;;;;;;;;;;;;;;;28.01;65.02;99610.31;342338;28;818;-78
2023/07/13 00:02:48;;;;;;;;;;;;;;;28.01;64.41;99610.31;344885;28;769;-78
2023/07/13 00:02:58;;;;;;;;;;;;;;;27.99;64.87;99610.47;346181;28;1285;-78
2023/07/13 00:03:08;;;;;;;;;;;;;;;27.99;64.59;99607.78;344648;28;1183;-78
2023/07/13 00:03:18;;;;;;;;;;;;;;;27.97;65.11;99620.56;345265;28;1139;-78
2023/07/13 00:03:34;;;;;;;;;;;;;;;27.95;64.95;99603.78;342057;28;1467;-78
2023/07/13 00:03:45;;;;;;;;;;;;;;;27.94;65.13;99609.31;344584;28;1287;-78
2023/07/13 00:03:56;;;;;;;;;;;;;;;27.93;65.07;99615.72;342468;28;1234;-78
2023/07/13 00:04:06;;;;;;;;;;;;;;;27.93;65.24;99613.88;340339;28;2325;-78
2023/07/13 00:04:18;;;;;;;;;;;;;;;27.93;65.24;99611.19;343205;28;2764;-78
2023/07/13 00:04:29;;;;;;;;;;;;;;;27.94;64.82;99606.63;342513;28;2806;-78
2023/07/13 00:04:41;;;;;;;;;;;;;;;27.92;65.07;99612.19;343776;28;1290;-78
2023/07/13 00:04:52;;;;;;;;;;;;;;;27.92;65.37;99605.97;340484;28;3109;-78
2023/07/13 00:05:02;;;;;;;;;;;;;;;27.92;64.94;99609.50;339559;29;810;-78
2023/07/13 00:05:12;;;;;;;;;;;;;;;27.92;65.29;99612.19;339216;29;1632;-79
2023/07/13 00:05:23;;;;;;;;;;;;;;;27.92;65.07;99612.19;339356;29;961;-79
2023/07/13 00:05:33;;;;;;;;;;;;;;;27.92;64.94;99606.81;339532;29;818;-79
2023/07/13 00:05:44;;;;;;;;;;;;;;;27.92;65.02;99617.56;340504;29;1341;-79
2023/07/13 00:05:58;;;;;;;;;;;;;;;27.93;64.91;99610.34;336465;29;1680;-79
2023/07/13 00:06:08;;;;;;;;;;;;;;;27.92;64.93;99611.34;332790;29;1602;-78
2023/07/13 00:06:20;;;;;;;;;;;;;;;27.92;65.05;99614.88;338187;29;1549;-78
2023/07/13 00:06:32;;;;;;;;;;;;;;;27.93;64.87;99607.66;331999;29;1331;-78
2023/07/13 00:06:44;;;;;;;;;;;;;;;27.93;65.35;99603.09;332861;29;1762;-78
2023/07/13 00:06:54;;;;;;;;;;;;;;;27.94;65.30;99612.84;331213;29;1323;-78
2023/07/13 00:07:05;;;;;;;;;;;;;;;27.93;64.95;99608.47;330506;29;1194;-78
2023/07/13 00:07:15;;;;;;;;;;;;;;;27.93;64.84;99613.88;331539;29;1200;-79
2023/07/13 00:07:25;;;;;;;;;;;;;;;27.92;65.39;99612.19;328554;29;1245;-79
2023/07/13 00:07:35;;;;;;;;;;;;;;;27.93;65.01;99607.66;327105;29;1586;-78
2023/07/13 00:07:46;;;;;;;;;;;;;;;27.92;65.29;99611.34;326801;30;1185;-79
2023/07/13 00:07:56;;;;;;;;;;;;;;;27.92;64.93;99617.56;325281;30;2115;-79
2023/07/13 00:08:08;;;;;;;;;;;;;;;27.91;64.96;99605.13;323272;30;1974;-78
2023/07/13 00:08:18;;;;;;;;;;;;;;;27.90;65.04;99608.00;324458;30;1332;-78
2023/07/13 00:08:30;;;;;;;;;;;;;;;27.90;65.51;99603.44;325981;29;2071;-78
2023/07/13 00:08:40;;;;;;;;;;;;;;;27.91;65.15;99609.66;326213;30;2596;-79
2023/07/13 00:08:50;;;;;;;;;;;;;;;27.90;65.41;99608.81;325289;30;2240;-78
2023/07/13 00:09:01;;;;;;;;;;;;;;;27.89;65.57;99607.16;326876;30;804;-78
2023/07/13 00:09:13;;;;;;;;;;;;;;;27.88;65.23;99607.31;327012;30;1638;-78
2023/07/13 00:09:23;;;;;;;;;;;;;;;27.87;65.55;99606.50;321623;30;1244;-78
2023/07/13 00:09:34;;;;;;;;;;;;;;;27.88;65.14;99610.00;319779;30;1198;-78
2023/07/13 00:09:44;;;;;;;;;;;;;;;27.87;65.75;99608.34;321165;30;1620;-78
2023/07/13 00:09:54;;;;;;;;;;;;;;;27.86;65.33;99612.03;320931;30;2255;-78
2023/07/13 00:10:05;;;;;;;;;;;;;;;27.87;65.13;99613.72;323225;30;1229;-79
2023/07/13 00:10:15;;;;;;;;;;;;;;;27.86;65.21;99610.19;317627;30;2757;-79
2023/07/13 00:10:26;;;;;;;;;;;;;;;27.86;65.72;99607.50;316402;30;2735;-79
2023/07/13 00:10:40;;;;;;;;;;;;;;;27.87;65.46;99611.03;314003;31;2929;-79
2023/07/13 00:10:54;;;;;;;;;;;;;;;27.87;65.63;99606.50;312345;31;2987;-78
2023/07/13 00:11:04;;;;;;;;;;;;;;;27.88;65.08;99615.41;315989;31;1290;-78
2023/07/13 00:11:15;;;;;;;;;;;;;;;27.88;65.46;99608.16;311447;31;2717;-78
2023/07/13 00:11:25;;;;;;;;;;;;;;;27.88;65.04;99602.78;312464;31;2245;-78
2023/07/13 00:11:35;;;;;;;;;;;;;;;27.90;65.17;99608.00;314500;31;1424;-78
2023/07/13 00:11:49;;;;;;;;;;;;;;;27.90;65.02;99606.13;311807;31;1315;-77
2023/07/13 00:12:00;;;;;;;;;;;;;;;27.87;65.69;99609.19;310752;31;2565;-77
2023/07/13 00:12:24;;;;;;;;;;;;;;;27.88;65.38;99605.47;307116;31;2876;-77
2023/07/13 00:12:34;;;;;;;;;;;;;;;27.88;65.94;99601.94;304860;32;1068;-78
2023/07/13 00:12:45;;;;;;;;;;;;;;;27.87;65.50;99603.78;300700;32;4574;-78
2023/07/13 00:12:55;;;;;;;;;;;;;;;27.88;65.08;99604.63;298126;33;4054;-78
2023/07/13 00:13:05;;;;;;;;;;;;;;;27.88;65.08;99605.47;297149;32;4762;-79
2023/07/13 00:13:17;;;;;;;;;;;;;;;27.88;65.53;99604.63;296127;33;1024;-78
2023/07/13 00:13:27;;;;;;;;;;;;;;;27.87;65.07;99609.19;293293;33;3958;-78
2023/07/13 00:13:39;;;;;;;;;;;;;;;27.86;65.45;99604.81;290095;33;3652;-78
2023/07/13 00:13:49;;;;;;;;;;;;;;;27.84;65.60;99604.13;290917;34;3234;-78
2023/07/13 00:13:59;;;;;;;;;;;;;;;27.82;65.56;99600.78;288877;34;3034;-77
2023/07/13 00:14:10;;;;;;;;;;;;;;;27.81;65.93;99609.88;285744;34;3793;-79
2023/07/13 00:14:20;;;;;;;;;;;;;;;27.78;65.64;99600.28;284832;34;1279;-78
2023/07/13 00:14:30;;;;;;;;;;;;;;;27.78;65.62;99604.84;284774;34;5258;-78
2023/07/13 00:14:40;;;;;;;;;;;;;;;27.78;66.09;99604.84;279297;35;7517;-79
2023/07/13 00:14:51;;;;;;;;;;;;;;;27.79;65.48;99606.50;276035;35;6720;-78
2023/07/13 00:15:03;;;;;;;;;;;;;;;27.79;65.65;99601.13;278175;35;1242;-79
2023/07/13 00:15:16;;;;;;;;;;;;;;;27.78;65.59;99602.97;274443;35;6921;-79
2023/07/13 00:15:26;;;;;;;;;;;;;;;27.77;65.60;99604.00;272868;35;6004;-78
2023/07/13 00:15:36;;;;;;;;;;;;;;;27.78;65.60;99602.13;272567;35;5549;-79
2023/07/13 00:15:47;;;;;;;;;;;;;;;27.77;65.92;99603.16;275705;35;879;-78
2023/07/13 00:17:27;;;;;;;;;;;;;;;27.78;65.65;99604.84;2498162;27;20417;-78
2023/07/13 00:17:38;;;;;;;;;;;;;;;27.77;65.63;99609.38;353101;28;1240;-78
2023/07/13 00:17:52;;;;;;;;;;;;;;;27.78;65.37;99607.53;351609;28;1246;-79
2023/07/13 00:18:02;;;;;;;;;;;;;;;27.79;65.49;99609.19;348860;28;1325;-79
2023/07/13 00:18:12;;;;;;;;;;;;;;;27.80;65.25;99605.50;350324;28;1505;-78
2023/07/13 00:18:23;;;;;;;;;;;;;;;27.80;65.58;99608.19;350332;28;1321;-78
2023/07/13 00:18:33;;;;;;;;;;;;;;;27.81;65.82;99604.50;347412;28;1249;-79
2023/07/13 00:18:44;;;;;;;;;;;;;;;27.81;65.31;99602.63;348819;28;1182;-79
2023/07/13 00:18:54;;;;;;;;;;;;;;;27.82;65.67;99600.78;348810;28;1243;-78
2023/07/13 00:19:05;;;;;;;;;;;;;;;27.82;65.05;99600.78;347456;28;1273;-78
2023/07/13 00:19:15;;;;;;;;;;;;;;;27.83;65.24;99603.31;349043;28;769;-78
2023/07/13 00:19:25;;;;;;;;;;;;;;;27.83;65.44;99602.47;350032;28;1342;-78
2023/07/13 00:19:36;;;;;;;;;;;;;;;27.82;65.15;99601.63;348990;28;1292;-77
2023/07/13 00:19:46;;;;;;;;;;;;;;;27.82;65.12;99606.16;350704;28;1223;-78
2023/07/13 00:19:56;;;;;;;;;;;;;;;27.82;65.30;99608.84;352932;28;1331;-78
2023/07/13 00:20:07;;;;;;;;;;;;;;;27.81;65.25;99605.31;351844;28;825;-79
2023/07/13 00:20:21;;;;;;;;;;;;;;;27.82;65.19;99601.63;350266;28;1350;-78
2023/07/13 00:20:33;;;;;;;;;;;;;;;27.84;65.51;99598.75;350150;28;1401;-78
2023/07/13 00:20:43;;;;;;;;;;;;;;;27.84;65.42;99601.44;351739;28;839;-78
2023/07/13 00:20:53;;;;;;;;;;;;;;;27.84;65.63;99598.75;353088;28;879;-78
2023/07/13 00:21:06;;;;;;;;;;;;;;;27.84;65.48;99598.75;354308;27;1217;-78
2023/07/13 00:21:17;;;;;;;;;;;;;;;27.81;65.16;99599.94;353047;27;1340;-78
2023/07/13 00:21:27;;;;;;;;;;;;;;;27.81;64.95;99605.31;348901;28;1307;-78
2023/07/13 00:21:40;;;;;;;;;;;;;;;27.80;65.71;99600.97;349283;28;1306;-78
2023/07/13 00:21:50;;;;;;;;;;;;;;;27.80;65.65;99608.19;347224;28;1057;-78
2023/07/13 00:22:00;;;;;;;;;;;;;;;27.79;65.71;99601.13;347348;28;1630;-79
2023/07/13 00:22:11;;;;;;;;;;;;;;;27.78;65.29;99602.13;346206;28;1204;-78
2023/07/13 00:22:23;;;;;;;;;;;;;;;27.77;65.13;99598.63;345196;28;908;-78
2023/07/13 00:22:34;;;;;;;;;;;;;;;27.76;65.48;99607.69;343549;28;1367;-78
2023/07/13 00:22:44;;;;;;;;;;;;;;;27.76;64.90;99601.47;342993;28;2943;-78
2023/07/13 00:22:54;;;;;;;;;;;;;;;27.75;64.95;99605.19;342627;28;2996;-78
2023/07/13 00:23:04;;;;;;;;;;;;;;;27.73;65.37;99604.50;342461;28;1339;-79
2023/07/13 00:23:15;;;;;;;;;;;;;;;27.72;65.09;99595.63;340840;28;1180;-78
2023/07/13 00:23:25;;;;;;;;;;;;;;;27.73;65.16;99599.13;341911;28;3037;-79
2023/07/13 00:23:37;;;;;;;;;;;;;;;27.72;65.36;99600.16;342575;28;1447;-78
2023/07/13 00:23:48;;;;;;;;;;;;;;;27.73;64.92;99599.13;339587;28;1233;-79
2023/07/13 00:24:00;;;;;;;;;;;;;;;27.73;65.19;99610.72;338223;29;1339;-78
2023/07/13 00:24:12;;;;;;;;;;;;;;;27.74;65.15;99598.97;341718;28;1238;-78
2023/07/13 00:24:23;;;;;;;;;;;;;;;27.74;65.01;99603.50;340797;29;966;-78
2023/07/13 00:24:35;;;;;;;;;;;;;;;27.73;64.58;99597.28;343367;28;1533;-78
2023/07/13 00:24:46;;;;;;;;;;;;;;;27.74;64.99;99598.97;342107;28;1163;-78
2023/07/13 00:24:56;;;;;;;;;;;;;;;27.76;65.05;99602.31;342089;28;1218;-78
2023/07/13 00:25:06;;;;;;;;;;;;;;;27.77;65.08;99598.63;341461;28;1300;-78
2023/07/13 00:25:17;;;;;;;;;;;;;;;27.79;65.11;99603.81;343249;28;1274;-78
2023/07/13 00:25:28;;;;;;;;;;;;;;;27.78;64.50;99599.44;337555;29;1285;-78
2023/07/13 00:25:38;;;;;;;;;;;;;;;27.79;64.47;99603.81;336105;29;1264;-78
2023/07/13 00:25:50;;;;;;;;;;;;;;;27.79;64.54;99606.50;336560;29;1354;-77
2023/07/13 00:26:01;;;;;;;;;;;;;;;27.76;64.87;99596.94;338181;29;1384;-78
2023/07/13 00:26:12;;;;;;;;;;;;;;;27.75;64.52;99600.63;338220;29;1404;-78
2023/07/13 00:26:22;;;;;;;;;;;;;;;27.75;64.47;99599.78;335547;29;1981;-79
2023/07/13 00:26:32;;;;;;;;;;;;;;;27.75;64.70;99599.78;335624;29;910;-78
2023/07/13 00:26:46;;;;;;;;;;;;;;;27.75;64.59;99602.47;335676;29;1226;-78
2023/07/13 00:26:56;;;;;;;;;;;;;;;27.75;65.03;99597.94;336821;29;954;-78
2023/07/13 00:27:06;;;;;;;;;;;;;;;27.74;65.24;99595.44;334483;29;1498;-77
2023/07/13 00:27:17;;;;;;;;;;;;;;;27.73;64.57;99597.28;331775;29;1196;-78
2023/07/13 00:27:29;;;;;;;;;;;;;;;27.74;65.08;99601.66;326875;30;769;-78
2023/07/13 00:27:40;;;;;;;;;;;;;;;27.73;65.04;99596.44;329617;29;1741;-78
2023/07/13 00:27:50;;;;;;;;;;;;;;;27.71;64.57;99599.34;327953;29;1726;-78
2023/07/13 00:28:00;;;;;;;;;;;;;;;27.72;64.71;99600.16;324421;30;1287;-78
2023/07/13 00:28:11;;;;;;;;;;;;;;;27.70;65.15;99594.97;327431;30;1409;-78
2023/07/13 00:28:21;;;;;;;;;;;;;;;27.72;64.90;99594.78;324729;30;2032;-78
2023/07/13 00:28:32;;;;;;;;;;;;;;;27.71;64.63;99593.13;321963;30;1542;-78
2023/07/13 00:28:42;;;;;;;;;;;;;;;27.71;64.76;99599.34;324361;30;1327;-77
2023/07/13 00:28:52;;;;;;;;;;;;;;;27.73;64.68;99596.44;324490;30;1425;-78
2023/07/13 00:29:03;;;;;;;;;;;;;;;27.73;65.04;99599.97;325178;30;1259;-78
2023/07/13 00:29:14;;;;;;;;;;;;;;;27.73;65.12;99601.81;322104;30;793;-78
2023/07/13 00:29:25;;;;;;;;;;;;;;;27.73;65.09;99599.13;318285;30;1871;-78
2023/07/13 00:29:36;;;;;;;;;;;;;;;27.74;64.97;99600.81;320541;30;2312;-78
2023/07/13 00:29:46;;;;;;;;;;;;;;;27.73;65.05;99597.28;321937;30;1342;-78
2023/07/13 00:29:56;;;;;;;;;;;;;;;27.72;64.82;99601.00;321479;30;2366;-78
2023/07/13 00:30:08;;;;;;;;;;;;;;;27.73;64.54;99597.28;321448;30;2163;-77
2023/07/13 00:30:19;;;;;;;;;;;;;;;27.73;64.72;99593.75;320723;30;2028;-78
2023/07/13 00:30:29;;;;;;;;;;;;;;;27.72;64.87;99601.00;319626;30;1151;-79
2023/07/13 00:30:39;;;;;;;;;;;;;;;27.71;64.76;99598.50;322148;30;2143;-78
2023/07/13 00:30:49;;;;;;;;;;;;;;;27.70;64.88;99599.50;323005;30;1706;-79
2023/07/13 00:31:00;;;;;;;;;;;;;;;27.69;64.84;99605.91;323511;30;1222;-78
2023/07/13 00:31:10;;;;;;;;;;;;;;;27.69;64.41;99595.13;322362;30;1342;-78
2023/07/13 00:31:21;;;;;;;;;;;;;;;27.68;64.49;99593.47;320384;30;1735;-78
2023/07/13 00:31:31;;;;;;;;;;;;;;;27.67;64.71;99603.38;315229;31;1308;-78
2023/07/13 00:31:42;;;;;;;;;;;;;;;27.66;64.76;99600.84;316814;31;2516;-79
2023/07/13 00:31:52;;;;;;;;;;;;;;;27.65;64.86;99604.56;314822;31;3104;-78
2023/07/13 00:32:04;;;;;;;;;;;;;;;27.63;65.13;99603.88;308881;31;3232;-77
2023/07/13 00:32:14;;;;;;;;;;;;;;;27.63;65.15;99606.56;314883;31;2886;-78
2023/07/13 00:32:27;;;;;;;;;;;;;;;27.64;65.29;99602.88;316224;31;3612;-78
2023/07/13 00:32:37;;;;;;;;;;;;;;;27.65;64.45;99599.19;311629;31;2959;-78
2023/07/13 00:32:48;;;;;;;;;;;;;;;27.65;64.84;99604.56;307852;32;2759;-78
2023/07/13 00:32:59;;;;;;;;;;;;;;;27.66;64.71;99606.25;306545;32;863;-78
2023/07/13 00:33:10;;;;;;;;;;;;;;;27.66;64.80;99595.47;306838;32;2172;-77
2023/07/13 00:33:20;;;;;;;;;;;;;;;27.64;64.47;99598.34;305656;32;2100;-77
2023/07/13 00:33:30;;;;;;;;;;;;;;;27.66;64.83;99598.16;304259;32;1273;-78
2023/07/13 00:33:41;;;;;;;;;;;;;;;27.66;64.57;99601.69;302437;32;2583;-78
2023/07/13 00:33:51;;;;;;;;;;;;;;;27.68;64.76;99598.84;300252;32;4197;-78
2023/07/13 00:34:02;;;;;;;;;;;;;;;27.67;64.75;99597.16;299841;32;4289;-77
2023/07/13 00:34:12;;;;;;;;;;;;;;;27.68;64.91;99598.84;304260;32;1273;-78
2023/07/13 00:34:22;;;;;;;;;;;;;;;27.67;64.52;99602.53;299737;32;4707;-78
2023/07/13 00:34:33;;;;;;;;;;;;;;;27.67;64.64;99598.00;298436;32;5017;-78
2023/07/13 00:34:43;;;;;;;;;;;;;;;27.68;64.72;99593.47;303333;32;1114;-78
2023/07/13 00:34:53;;;;;;;;;;;;;;;27.69;64.45;99600.50;299874;32;4167;-78
2023/07/13 00:35:04;;;;;;;;;;;;;;;27.68;64.79;99593.47;298596;32;3339;-78
2023/07/13 00:35:15;;;;;;;;;;;;;;;27.68;64.41;99596.16;300082;32;838;-78
2023/07/13 00:35:25;;;;;;;;;;;;;;;27.67;64.53;99591.78;297000;33;2938;-79
2023/07/13 00:35:35;;;;;;;;;;;;;;;27.66;64.62;99600.84;293343;33;2854;-78
2023/07/13 00:35:46;;;;;;;;;;;;;;;27.66;64.43;99598.16;290115;34;1227;-78
2023/07/13 00:35:56;;;;;;;;;;;;;;;27.64;64.43;99592.13;288981;33;3870;-78
2023/07/13 00:36:07;;;;;;;;;;;;;;;27.64;64.33;99597.50;286259;34;5720;-78
2023/07/13 00:36:17;;;;;;;;;;;;;;;27.61;64.56;99596.00;283969;34;7350;-78
2023/07/13 00:36:29;;;;;;;;;;;;;;;27.60;64.33;99596.16;286142;34;1503;-78
2023/07/13 00:36:39;;;;;;;;;;;;;;;27.60;64.39;99598.84;279820;34;6569;-78
2023/07/13 00:36:50;;;;;;;;;;;;;;;27.58;64.03;99592.78;278930;34;6838;-78
2023/07/13 00:37:00;;;;;;;;;;;;;;;27.59;64.50;99594.50;280044;35;782;-78
2023/07/13 00:37:11;;;;;;;;;;;;;;;27.57;64.36;99591.09;277980;35;6031;-78
2023/07/13 00:37:21;;;;;;;;;;;;;;;27.56;64.33;99594.81;274947;35;5616;-78
2023/07/13 00:37:32;;;;;;;;;;;;;;;27.55;64.42;99593.97;273163;35;4278;-78
2023/07/13 00:37:42;;;;;;;;;;;;;;;27.55;64.11;99593.13;274817;36;800;-78
2023/07/13 00:39:24;;;;;;;;;;;;;;;27.55;64.63;99595.81;2497514;27;20452;-79
2023/07/13 00:39:34;;;;;;;;;;;;;;;27.56;64.42;99597.50;352988;28;1308;-79
2023/07/13 00:39:44;;;;;;;;;;;;;;;27.56;64.37;99589.41;351706;28;890;-78
2023/07/13 00:39:55;;;;;;;;;;;;;;;27.57;64.30;99586.56;348874;28;1390;-78
2023/07/13 00:40:06;;;;;;;;;;;;;;;27.57;64.10;99594.63;348889;28;1407;-78
2023/07/13 00:40:18;;;;;;;;;;;;;;;27.56;64.15;99584.03;350247;28;1235;-79
2023/07/13 00:40:28;;;;;;;;;;;;;;;27.57;64.44;99585.72;350160;28;1243;-77
2023/07/13 00:40:38;;;;;;;;;;;;;;;27.56;64.18;99589.41;353051;28;1210;-77
2023/07/13 00:40:49;;;;;;;;;;;;;;;27.56;64.45;99594.81;353266;28;872;-76
2023/07/13 00:40:59;;;;;;;;;;;;;;;27.55;64.69;99595.81;350146;28;823;-78
2023/07/13 00:41:09;;;;;;;;;;;;;;;27.53;64.75;99589.75;347419;28;2259;-77
2023/07/13 00:41:20;;;;;;;;;;;;;;;27.53;64.50;99590.59;346961;28;2889;-77
2023/07/13 00:41:31;;;;;;;;;;;;;;;27.53;64.41;99592.44;348684;28;3043;-79
2023/07/13 00:41:41;;;;;;;;;;;;;;;27.55;64.21;99593.13;350143;28;2752;-79
2023/07/13 00:41:51;;;;;;;;;;;;;;;27.53;64.21;99589.75;349572;28;2952;-79
2023/07/13 00:42:02;;;;;;;;;;;;;;;27.52;64.74;99586.22;350356;28;1220;-79
2023/07/13 00:42:12;;;;;;;;;;;;;;;27.52;64.62;99588.91;350056;28;1281;-79
2023/07/13 00:42:22;;;;;;;;;;;;;;;27.52;64.60;99588.09;348907;28;1400;-78
2023/07/13 00:42:33;;;;;;;;;;;;;;;27.54;64.42;99591.44;348259;28;1868;-78
2023/07/13 00:42:43;;;;;;;;;;;;;;;27.52;64.62;99588.91;345883;28;1184;-78
2023/07/13 00:42:53;;;;;;;;;;;;;;;27.52;64.64;99588.09;343515;28;1380;-79
2023/07/13 00:43:04;;;;;;;;;;;;;;;27.53;64.56;99584.38;344548;28;1264;-79
2023/07/13 00:43:16;;;;;;;;;;;;;;;27.50;64.38;99591.78;346413;28;989;-78
2023/07/13 00:43:27;;;;;;;;;;;;;;;27.47;64.61;99586.75;346552;28;847;-78
2023/07/13 00:43:37;;;;;;;;;;;;;;;27.45;64.38;99594.13;346271;28;1243;-79
2023/07/13 00:43:47;;;;;;;;;;;;;;;27.43;64.67;99587.25;344697;28;1319;-79
2023/07/13 00:43:58;;;;;;;;;;;;;;;27.43;64.53;99585.41;346074;28;1330;-79
2023/07/13 00:44:12;;;;;;;;;;;;;;;27.43;64.79;99580.03;346227;28;1338;-79
2023/07/13 00:44:23;;;;;;;;;;;;;;;27.42;64.66;99589.09;343384;28;1314;-79
2023/07/13 00:44:33;;;;;;;;;;;;;;;27.43;64.94;99585.41;344856;28;1282;-79
2023/07/13 00:45:03;;;;;;;;;;;;;;;27.42;64.75;99594.47;345997;28;1256;-79
2023/07/13 00:45:13;;;;;;;;;;;;;;;27.42;65.00;99583.72;343436;28;1432;-78
2023/07/13 00:45:23;;;;;;;;;;;;;;;27.43;65.12;99587.25;345339;28;1237;-78
2023/07/13 00:45:34;;;;;;;;;;;;;;;27.43;64.60;99585.41;344511;28;1324;-78
2023/07/13 00:45:44;;;;;;;;;;;;;;;27.44;64.85;99580.88;341242;28;1233;-78
2023/07/13 00:46:13;;;;;;;;;;;;;;;27.44;64.75;99583.56;344890;28;1316;-78
2023/07/13 00:46:28;;;;;;;;;;;;;;;27.44;64.85;99589.78;340604;28;1213;-78
2023/07/13 00:46:38;;;;;;;;;;;;;;;27.44;64.59;99587.09;339313;29;1246;-78
2023/07/13 00:46:48;;;;;;;;;;;;;;;27.44;65.03;99581.72;341022;28;1759;-78
2023/07/13 00:46:58;;;;;;;;;;;;;;;27.46;64.74;99582.38;339273;29;1206;-78
2023/07/13 00:47:09;;;;;;;;;;;;;;;27.47;64.62;99588.59;339594;29;798;-78
2023/07/13 00:47:19;;;;;;;;;;;;;;;27.46;64.89;99579.69;340693;28;1187;-78
2023/07/13 00:47:29;;;;;;;;;;;;;;;27.47;64.72;99586.75;341378;28;988;-78
2023/07/13 00:47:39;;;;;;;;;;;;;;;27.46;65.00;99579.69;342082;28;1227;-78
2023/07/13 00:47:50;;;;;;;;;;;;;;;27.45;65.15;99587.94;343049;28;1344;-78
2023/07/13 00:48:00;;;;;;;;;;;;;;;27.44;65.23;99587.09;344249;28;1651;-78
2023/07/13 00:48:14;;;;;;;;;;;;;;;27.43;65.20;99584.56;343513;28;982;-78
2023/07/13 00:48:26;;;;;;;;;;;;;;;27.44;64.95;99586.25;343075;28;1225;-78
2023/07/13 00:48:37;;;;;;;;;;;;;;;27.42;65.38;99588.28;340850;29;940;-78
2023/07/13 00:48:48;;;;;;;;;;;;;;;27.43;65.13;99584.56;339517;29;1218;-78
2023/07/13 00:49:01;;;;;;;;;;;;;;;27.43;65.47;99584.56;340536;29;1420;-78
2023/07/13 00:49:12;;;;;;;;;;;;;;;27.44;65.06;99576.34;340856;29;836;-78
2023/07/13 00:49:22;;;;;;;;;;;;;;;27.45;65.00;99579.88;341929;28;1292;-78
2023/07/13 00:49:33;;;;;;;;;;;;;;;27.46;65.12;99579.69;338220;29;1365;-78
2023/07/13 00:49:43;;;;;;;;;;;;;;;27.46;65.14;99584.22;334222;29;1460;-78
2023/07/13 00:49:55;;;;;;;;;;;;;;;27.47;65.08;99580.53;336923;29;862;-78
2023/07/13 00:50:06;;;;;;;;;;;;;;;27.47;64.87;99584.06;333108;29;1624;-78
2023/07/13 00:50:16;;;;;;;;;;;;;;;27.47;64.81;99586.75;331887;29;2076;-78
2023/07/13 00:50:27;;;;;;;;;;;;;;;27.48;64.92;99577.66;329643;29;3353;-78
2023/07/13 00:50:37;;;;;;;;;;;;;;;27.48;65.05;99580.34;333561;29;3076;-78
2023/07/13 00:50:50;;;;;;;;;;;;;;;27.47;64.89;99584.06;333461;29;1424;-78
2023/07/13 00:51:00;;;;;;;;;;;;;;;27.46;65.16;99579.69;335565;29;1103;-78
2023/07/13 00:51:11;;;;;;;;;;;;;;;27.46;65.16;99585.06;338425;29;3000;-78
2023/07/13 00:51:23;;;;;;;;;;;;;;;27.47;64.85;99580.53;334009;29;1625;-78
2023/07/13 00:51:40;;;;;;;;;;;;;;;27.46;65.03;99586.91;333351;29;1851;-78
2023/07/13 00:51:50;;;;;;;;;;;;;;;27.47;65.21;99584.06;326592;30;1748;-78
2023/07/13 00:52:06;;;;;;;;;;;;;;;27.47;64.97;99584.06;325083;30;1942;-78
2023/07/13 00:52:16;;;;;;;;;;;;;;;27.47;65.00;99580.53;326944;29;2205;-78
2023/07/13 00:52:28;;;;;;;;;;;;;;;27.46;65.32;99584.22;330487;29;1447;-78
2023/07/13 00:52:39;;;;;;;;;;;;;;;27.45;64.89;99583.38;324403;30;1299;-78
2023/07/13 00:52:51;;;;;;;;;;;;;;;27.46;65.14;99587.75;323892;30;1869;-77
2023/07/13 00:53:02;;;;;;;;;;;;;;;27.45;65.47;99586.06;323714;30;922;-77
2023/07/13 00:53:13;;;;;;;;;;;;;;;27.46;64.80;99584.22;326862;30;1310;-77
2023/07/13 00:53:23;;;;;;;;;;;;;;;27.45;64.93;99578.00;318614;31;1328;-77
2023/07/13 00:53:34;;;;;;;;;;;;;;;27.45;64.91;99586.06;316758;30;2742;-78
2023/07/13 00:53:44;;;;;;;;;;;;;;;27.43;64.82;99584.56;316593;30;2970;-78
2023/07/13 00:53:54;;;;;;;;;;;;;;;27.41;64.70;99582.06;323331;30;1209;-78
2023/07/13 00:54:05;;;;;;;;;;;;;;;27.41;65.08;99587.44;319623;30;2564;-78
2023/07/13 00:54:19;;;;;;;;;;;;;;;27.41;65.14;99587.44;319754;30;2712;-78
2023/07/13 00:54:31;;;;;;;;;;;;;;;27.40;64.85;99585.75;320029;30;2911;-78
2023/07/13 00:54:43;;;;;;;;;;;;;;;27.40;64.61;99585.75;317310;31;1377;-78
2023/07/13 00:54:53;;;;;;;;;;;;;;;27.40;64.60;99579.53;315159;31;1445;-78
2023/07/13 00:55:04;;;;;;;;;;;;;;;27.39;64.81;99586.75;316647;31;2272;-77
2023/07/13 00:55:14;;;;;;;;;;;;;;;27.39;65.11;99585.91;316653;31;1585;-79
2023/07/13 00:55:24;;;;;;;;;;;;;;;27.39;64.47;99584.06;315238;31;1250;-78
2023/07/13 00:55:35;;;;;;;;;;;;;;;27.40;65.32;99584.91;313732;31;2305;-79
2023/07/13 00:55:45;;;;;;;;;;;;;;;27.38;65.13;99587.78;309546;31;3341;-79
2023/07/13 00:55:56;;;;;;;;;;;;;;;27.38;64.79;99582.41;308551;32;1407;-78
2023/07/13 00:56:06;;;;;;;;;;;;;;;27.37;65.01;99586.09;305876;31;4097;-77
2023/07/13 00:56:16;;;;;;;;;;;;;;;27.37;64.90;99579.88;304695;32;4388;-77
2023/07/13 00:56:28;;;;;;;;;;;;;;;27.37;64.97;99588.78;305289;32;1189;-77
2023/07/13 00:56:38;;;;;;;;;;;;;;;27.39;64.91;99591.28;302251;32;1281;-77
2023/07/13 00:56:49;;;;;;;;;;;;;;;27.38;65.09;99582.41;300474;32;3919;-78
2023/07/13 00:57:00;;;;;;;;;;;;;;;27.38;65.22;99587.78;300755;32;3847;-78
2023/07/13 00:57:17;;;;;;;;;;;;;;;27.38;65.16;99587.78;301808;32;1308;-79
2023/07/13 00:57:27;;;;;;;;;;;;;;;27.39;64.90;99583.22;296203;32;2405;-78
2023/07/13 00:57:38;;;;;;;;;;;;;;;27.40;64.61;99590.28;298112;33;826;-79
2023/07/13 00:57:49;;;;;;;;;;;;;;;27.39;64.50;99584.06;297177;32;3151;-79
2023/07/13 00:57:59;;;;;;;;;;;;;;;27.40;64.88;99584.91;296112;33;4934;-78
2023/07/13 00:58:09;;;;;;;;;;;;;;;27.38;64.64;99581.56;291104;34;1290;-78
2023/07/13 00:58:19;;;;;;;;;;;;;;;27.39;64.89;99584.06;292538;33;6749;-78
2023/07/13 00:58:30;;;;;;;;;;;;;;;27.39;64.24;99584.06;291880;33;5980;-78
2023/07/13 00:58:40;;;;;;;;;;;;;;;27.36;64.30;99584.41;293108;33;815;-78
2023/07/13 00:58:50;;;;;;;;;;;;;;;27.38;64.73;99587.78;289233;33;5207;-79
2023/07/13 00:59:01;;;;;;;;;;;;;;;27.37;64.77;99583.41;287629;34;5425;-79
2023/07/13 00:59:12;;;;;;;;;;;;;;;27.38;64.25;99581.56;287520;34;1366;-78
2023/07/13 00:59:22;;;;;;;;;;;;;;;27.38;64.28;99585.06;285470;34;5284;-78
2023/07/13 00:59:32;;;;;;;;;;;;;;;27.38;64.43;99582.41;283525;34;4961;-78
2023/07/13 00:59:43;;;;;;;;;;;;;;;27.39;64.31;99580.53;280917;35;3323;-78
2023/07/13 00:59:54;;;;;;;;;;;;;;;27.40;64.50;99584.91;278846;35;2789;-78
2023/07/13 01:00:06;;;;;;;;;;;;;;;27.41;64.69;99587.44;278106;35;5575;-78
2023/07/13 01:00:17;;;;;;;;;;;;;;;27.42;64.53;99583.72;275166;35;7630;-78
2023/07/13 01:02:37;;;;;;;;;;;;;;;27.39;64.24;99584.06;2482832;27;19923;-78
2023/07/13 01:02:47;;;;;;;;;;;;;;;27.37;64.09;99586.09;351547;28;1486;-78
2023/07/13 01:02:58;;;;;;;;;;;;;;;27.36;64.54;99584.41;348851;28;1325;-77
2023/07/13 01:03:08;;;;;;;;;;;;;;;27.37;64.15;99578.03;347542;28;1237;-77
2023/07/13 01:03:18;;;;;;;;;;;;;;;27.36;64.53;99581.72;346149;28;1110;-79
2023/07/13 01:03:29;;;;;;;;;;;;;;;27.37;64.26;99580.72;346289;28;788;-78
2023/07/13 01:03:40;;;;;;;;;;;;;;;27.36;64.48;99579.03;344756;28;1221;-78
2023/07/13 01:03:50;;;;;;;;;;;;;;;27.36;64.48;99578.19;344787;28;1280;-78
2023/07/13 01:04:00;;;;;;;;;;;;;;;27.36;64.29;99579.03;344783;28;842;-78